sensor_id;sensor_type;location;lat;lon;timestamp;pressure;altitude;pressure_sealevel;temperature
8362;BMP180;4218;48.326;14.304;2024-03-08T00:02:03;98680.00;;;3.90
8362;BMP180;4218;48.326;14.304;2024-03-08T00:04:29;98682.00;;;4.00
8362;BMP180;4218;48.326;14.304;2024-03-08T00:06:54;98675.00;;;4.00
8362;BMP180;4218;48.326;14.304;2024-03-08T00:09:20;98686.00;;;3.80
8362;BMP180;4218;48.326;14.304;2024-03-08T00:11:46;98689.00;;;3.90
8362;BMP180;4218;48.326;14.304;2024-03-08T00:14:12;98684.00;;;3.80
8362;BMP180;4218;48.326;14.304;2024-03-08T00:16:37;98682.00;;;3.90
8362;BMP180;4218;48.326;14.304;2024-03-08T00:19:07;98675.00;;;3.90
8362;BMP180;4218;48.326;14.304;2024-03-08T00:21:32;98687.00;;;3.80
8362;BMP180;4218;48.326;14.304;2024-03-08T00:23:58;98683.00;;;3.80
8362;BMP180;4218;48.326;14.304;2024-03-08T00:26:23;98681.00;;;3.80
8362;BMP180;4218;48.326;14.304;2024-03-08T00:28:48;98680.00;;;3.80
8362;BMP180;4218;48.326;14.304;2024-03-08T00:31:14;98680.00;;;3.70
8362;BMP180;4218;48.326;14.304;2024-03-08T00:33:42;98678.00;;;3.70
8362;BMP180;4218;48.326;14.304;2024-03-08T00:36:08;98675.00;;;3.70
8362;BMP180;4218;48.326;14.304;2024-03-08T00:38:33;98667.00;;;3.50
8362;BMP180;4218;48.326;14.304;2024-03-08T00:40:59;98663.00;;;3.50
8362;BMP180;4218;48.326;14.304;2024-03-08T00:43:25;98668.00;;;3.50
8362;BMP180;4218;48.326;14.304;2024-03-08T00:45:51;98656.00;;;3.30
8362;BMP180;4218;48.326;14.304;2024-03-08T00:48:16;98653.00;;;3.30
8362;BMP180;4218;48.326;14.304;2024-03-08T00:50:42;98646.00;;;3.30
8362;BMP180;4218;48.326;14.304;2024-03-08T00:53:10;98647.00;;;3.30
8362;BMP180;4218;48.326;14.304;2024-03-08T00:55:36;98642.00;;;3.30
8362;BMP180;4218;48.326;14.304;2024-03-08T00:58:03;98633.00;;;3.10
8362;BMP180;4218;48.326;14.304;2024-03-08T01:00:29;98630.00;;;3.10
8362;BMP180;4218;48.326;14.304;2024-03-08T01:02:54;98625.00;;;3.10
8362;BMP180;4218;48.326;14.304;2024-03-08T01:05:21;98623.00;;;3.00
8362;BMP180;4218;48.326;14.304;2024-03-08T01:07:50;98628.00;;;3.00
8362;BMP180;4218;48.326;14.304;2024-03-08T01:10:16;98625.00;;;2.90
8362;BMP180;4218;48.326;14.304;2024-03-08T01:12:43;98615.00;;;2.80
8362;BMP180;4218;48.326;14.304;2024-03-08T01:15:10;98621.00;;;2.80
8362;BMP180;4218;48.326;14.304;2024-03-08T01:17:36;98626.00;;;2.80
8362;BMP180;4218;48.326;14.304;2024-03-08T01:22:37;98607.00;;;2.70
8362;BMP180;4218;48.326;14.304;2024-03-08T01:25:02;98617.00;;;2.70
8362;BMP180;4218;48.326;14.304;2024-03-08T01:27:31;98618.00;;;2.70
8362;BMP180;4218;48.326;14.304;2024-03-08T01:29:57;98620.00;;;2.70
8362;BMP180;4218;48.326;14.304;2024-03-08T01:32:24;98616.00;;;2.70
8362;BMP180;4218;48.326;14.304;2024-03-08T01:34:56;98608.00;;;2.60
8362;BMP180;4218;48.326;14.304;2024-03-08T01:37:21;98607.00;;;2.60
8362;BMP180;4218;48.326;14.304;2024-03-08T01:39:47;98595.00;;;2.60
8362;BMP180;4218;48.326;14.304;2024-03-08T01:42:12;98596.00;;;2.50
8362;BMP180;4218;48.326;14.304;2024-03-08T01:44:40;98574.00;;;2.50
8362;BMP180;4218;48.326;14.304;2024-03-08T01:47:07;98587.00;;;2.50
8362;BMP180;4218;48.326;14.304;2024-03-08T01:49:32;98580.00;;;2.50
8362;BMP180;4218;48.326;14.304;2024-03-08T01:51:58;98581.00;;;2.50
8362;BMP180;4218;48.326;14.304;2024-03-08T01:54:24;98581.00;;;2.40
8362;BMP180;4218;48.326;14.304;2024-03-08T01:56:51;98583.00;;;2.40
8362;BMP180;4218;48.326;14.304;2024-03-08T01:59:18;98576.00;;;2.50
8362;BMP180;4218;48.326;14.304;2024-03-08T02:01:44;98590.00;;;2.40
8362;BMP180;4218;48.326;14.304;2024-03-08T02:04:10;98585.00;;;2.40
8362;BMP180;4218;48.326;14.304;2024-03-08T02:06:36;98577.00;;;2.30
8362;BMP180;4218;48.326;14.304;2024-03-08T02:09:03;98578.00;;;2.20
8362;BMP180;4218;48.326;14.304;2024-03-08T02:11:33;98578.00;;;2.20
8362;BMP180;4218;48.326;14.304;2024-03-08T02:13:59;98578.00;;;2.10
8362;BMP180;4218;48.326;14.304;2024-03-08T02:16:24;98574.00;;;2.00
8362;BMP180;4218;48.326;14.304;2024-03-08T02:18:51;98572.00;;;2.00
8362;BMP180;4218;48.326;14.304;2024-03-08T02:21:17;98576.00;;;2.10
8362;BMP180;4218;48.326;14.304;2024-03-08T02:23:43;98562.00;;;2.10
8362;BMP180;4218;48.326;14.304;2024-03-08T02:26:09;98569.00;;;2.00
8362;BMP180;4218;48.326;14.304;2024-03-08T02:28:39;98559.00;;;2.10
8362;BMP180;4218;48.326;14.304;2024-03-08T02:31:09;98563.00;;;2.00
8362;BMP180;4218;48.326;14.304;2024-03-08T02:33:34;98567.00;;;2.10
8362;BMP180;4218;48.326;14.304;2024-03-08T02:36:01;98557.00;;;2.00
8362;BMP180;4218;48.326;14.304;2024-03-08T02:38:27;98558.00;;;2.00
8362;BMP180;4218;48.326;14.304;2024-03-08T02:40:53;98546.00;;;2.00
8362;BMP180;4218;48.326;14.304;2024-03-08T02:43:20;98555.00;;;1.90
8362;BMP180;4218;48.326;14.304;2024-03-08T02:45:47;98553.00;;;1.90
8362;BMP180;4218;48.326;14.304;2024-03-08T02:48:14;98558.00;;;1.90
8362;BMP180;4218;48.326;14.304;2024-03-08T02:50:42;98547.00;;;1.90
8362;BMP180;4218;48.326;14.304;2024-03-08T02:53:08;98550.00;;;1.80
8362;BMP180;4218;48.326;14.304;2024-03-08T02:55:35;98549.00;;;1.80
8362;BMP180;4218;48.326;14.304;2024-03-08T02:58:01;98542.00;;;1.80
8362;BMP180;4218;48.326;14.304;2024-03-08T03:00:29;98547.00;;;1.90
8362;BMP180;4218;48.326;14.304;2024-03-08T03:02:58;98564.00;;;1.90
8362;BMP180;4218;48.326;14.304;2024-03-08T03:05:24;98560.00;;;1.90
8362;BMP180;4218;48.326;14.304;2024-03-08T03:07:50;98559.00;;;1.90
8362;BMP180;4218;48.326;14.304;2024-03-08T03:10:17;98552.00;;;1.70
8362;BMP180;4218;48.326;14.304;2024-03-08T03:12:43;98558.00;;;1.70
8362;BMP180;4218;48.326;14.304;2024-03-08T03:15:10;98543.00;;;1.50
8362;BMP180;4218;48.326;14.304;2024-03-08T03:17:37;98536.00;;;1.40
8362;BMP180;4218;48.326;14.304;2024-03-08T03:20:05;98544.00;;;1.40
8362;BMP180;4218;48.326;14.304;2024-03-08T03:22:36;98529.00;;;1.40
8362;BMP180;4218;48.326;14.304;2024-03-08T03:25:02;98539.00;;;1.30
8362;BMP180;4218;48.326;14.304;2024-03-08T03:27:29;98539.00;;;1.30
8362;BMP180;4218;48.326;14.304;2024-03-08T03:29:56;98545.00;;;1.30
8362;BMP180;4218;48.326;14.304;2024-03-08T03:32:23;98534.00;;;1.20
8362;BMP180;4218;48.326;14.304;2024-03-08T03:34:48;98539.00;;;1.10
8362;BMP180;4218;48.326;14.304;2024-03-08T03:37:14;98541.00;;;1.10
8362;BMP180;4218;48.326;14.304;2024-03-08T03:39:40;98538.00;;;1.00
8362;BMP180;4218;48.326;14.304;2024-03-08T03:42:15;98546.00;;;1.10
8362;BMP180;4218;48.326;14.304;2024-03-08T03:44:43;98546.00;;;1.10
8362;BMP180;4218;48.326;14.304;2024-03-08T03:47:09;98538.00;;;1.10
8362;BMP180;4218;48.326;14.304;2024-03-08T03:49:35;98548.00;;;1.20
8362;BMP180;4218;48.326;14.304;2024-03-08T03:52:00;98545.00;;;1.20
8362;BMP180;4218;48.326;14.304;2024-03-08T03:54:25;98541.00;;;1.20
8362;BMP180;4218;48.326;14.304;2024-03-08T03:56:51;98537.00;;;1.20
8362;BMP180;4218;48.326;14.304;2024-03-08T03:59:18;98536.00;;;1.20
8362;BMP180;4218;48.326;14.304;2024-03-08T04:01:44;98545.00;;;1.20
8362;BMP180;4218;48.326;14.304;2024-03-08T04:04:10;98541.00;;;1.30
8362;BMP180;4218;48.326;14.304;2024-03-08T04:06:37;98536.00;;;1.30
8362;BMP180;4218;48.326;14.304;2024-03-08T04:09:02;98519.00;;;1.20
8362;BMP180;4218;48.326;14.304;2024-03-08T04:11:29;98520.00;;;1.10
8362;BMP180;4218;48.326;14.304;2024-03-08T04:13:55;98521.00;;;1.20
8362;BMP180;4218;48.326;14.304;2024-03-08T04:16:21;98517.00;;;1.10
8362;BMP180;4218;48.326;14.304;2024-03-08T04:18:46;98506.00;;;1.30
8362;BMP180;4218;48.326;14.304;2024-03-08T04:21:13;98523.00;;;1.20
8362;BMP180;4218;48.326;14.304;2024-03-08T04:23:38;98512.00;;;1.20
8362;BMP180;4218;48.326;14.304;2024-03-08T04:26:04;98510.00;;;1.20
8362;BMP180;4218;48.326;14.304;2024-03-08T04:28:31;98500.00;;;1.50
8362;BMP180;4218;48.326;14.304;2024-03-08T04:30:57;98509.00;;;1.60
8362;BMP180;4218;48.326;14.304;2024-03-08T04:33:23;98496.00;;;1.60
8362;BMP180;4218;48.326;14.304;2024-03-08T04:35:49;98496.00;;;1.70
8362;BMP180;4218;48.326;14.304;2024-03-08T04:38:16;98486.00;;;1.80
8362;BMP180;4218;48.326;14.304;2024-03-08T04:40:42;98485.00;;;1.80
8362;BMP180;4218;48.326;14.304;2024-03-08T04:43:08;98489.00;;;1.90
8362;BMP180;4218;48.326;14.304;2024-03-08T04:45:36;98485.00;;;1.90
8362;BMP180;4218;48.326;14.304;2024-03-08T04:48:01;98497.00;;;2.00
8362;BMP180;4218;48.326;14.304;2024-03-08T04:50:27;98488.00;;;2.00
8362;BMP180;4218;48.326;14.304;2024-03-08T04:52:54;98498.00;;;2.10
8362;BMP180;4218;48.326;14.304;2024-03-08T04:55:20;98488.00;;;2.10
8362;BMP180;4218;48.326;14.304;2024-03-08T04:57:47;98483.00;;;2.10
8362;BMP180;4218;48.326;14.304;2024-03-08T05:00:13;98492.00;;;2.20
8362;BMP180;4218;48.326;14.304;2024-03-08T05:02:39;98493.00;;;2.30
8362;BMP180;4218;48.326;14.304;2024-03-08T05:05:09;98490.00;;;2.20
8362;BMP180;4218;48.326;14.304;2024-03-08T05:07:38;98494.00;;;2.20
8362;BMP180;4218;48.326;14.304;2024-03-08T05:10:04;98482.00;;;2.20
8362;BMP180;4218;48.326;14.304;2024-03-08T05:12:30;98481.00;;;2.20
8362;BMP180;4218;48.326;14.304;2024-03-08T05:14:56;98479.00;;;2.20
8362;BMP180;4218;48.326;14.304;2024-03-08T05:17:22;98475.00;;;2.10
8362;BMP180;4218;48.326;14.304;2024-03-08T05:19:49;98477.00;;;2.10
8362;BMP180;4218;48.326;14.304;2024-03-08T05:22:14;98477.00;;;2.10
8362;BMP180;4218;48.326;14.304;2024-03-08T05:24:40;98464.00;;;2.00
8362;BMP180;4218;48.326;14.304;2024-03-08T05:27:05;98461.00;;;2.00
8362;BMP180;4218;48.326;14.304;2024-03-08T05:29:31;98469.00;;;2.00
8362;BMP180;4218;48.326;14.304;2024-03-08T05:31:57;98471.00;;;1.90
8362;BMP180;4218;48.326;14.304;2024-03-08T05:34:23;98458.00;;;1.80
8362;BMP180;4218;48.326;14.304;2024-03-08T05:36:49;98471.00;;;2.00
8362;BMP180;4218;48.326;14.304;2024-03-08T05:39:16;98474.00;;;1.90
8362;BMP180;4218;48.326;14.304;2024-03-08T05:41:43;98473.00;;;1.90
8362;BMP180;4218;48.326;14.304;2024-03-08T05:44:12;98476.00;;;1.90
8362;BMP180;4218;48.326;14.304;2024-03-08T05:46:38;98479.00;;;1.90
8362;BMP180;4218;48.326;14.304;2024-03-08T05:49:05;98474.00;;;2.00
8362;BMP180;4218;48.326;14.304;2024-03-08T05:51:35;98469.00;;;2.00
8362;BMP180;4218;48.326;14.304;2024-03-08T05:54:05;98469.00;;;2.10
8362;BMP180;4218;48.326;14.304;2024-03-08T05:59:06;98459.00;;;2.00
8362;BMP180;4218;48.326;14.304;2024-03-08T06:01:33;98469.00;;;2.10
8362;BMP180;4218;48.326;14.304;2024-03-08T06:04:02;98460.00;;;2.00
8362;BMP180;4218;48.326;14.304;2024-03-08T06:06:28;98462.00;;;1.80
8362;BMP180;4218;48.326;14.304;2024-03-08T06:08:54;98459.00;;;2.00
8362;BMP180;4218;48.326;14.304;2024-03-08T06:11:22;98457.00;;;2.00
8362;BMP180;4218;48.326;14.304;2024-03-08T06:13:48;98469.00;;;2.00
8362;BMP180;4218;48.326;14.304;2024-03-08T06:16:16;98455.00;;;1.80
8362;BMP180;4218;48.326;14.304;2024-03-08T06:18:42;98463.00;;;1.80
8362;BMP180;4218;48.326;14.304;2024-03-08T06:21:08;98464.00;;;1.90
8362;BMP180;4218;48.326;14.304;2024-03-08T06:23:41;98461.00;;;1.90
8362;BMP180;4218;48.326;14.304;2024-03-08T06:26:07;98456.00;;;2.00
8362;BMP180;4218;48.326;14.304;2024-03-08T06:28:33;98452.00;;;1.80
8362;BMP180;4218;48.326;14.304;2024-03-08T06:31:01;98458.00;;;2.10
8362;BMP180;4218;48.326;14.304;2024-03-08T06:33:27;98453.00;;;2.10
8362;BMP180;4218;48.326;14.304;2024-03-08T06:35:53;98464.00;;;2.20
8362;BMP180;4218;48.326;14.304;2024-03-08T06:38:19;98454.00;;;2.10
8362;BMP180;4218;48.326;14.304;2024-03-08T06:40:45;98457.00;;;2.10
8362;BMP180;4218;48.326;14.304;2024-03-08T06:43:14;98460.00;;;2.20
8362;BMP180;4218;48.326;14.304;2024-03-08T06:45:44;98448.00;;;2.10
8362;BMP180;4218;48.326;14.304;2024-03-08T06:48:15;98448.00;;;2.40
8362;BMP180;4218;48.326;14.304;2024-03-08T06:51:07;98438.00;;;2.20
8362;BMP180;4218;48.326;14.304;2024-03-08T06:54:01;98449.00;;;2.50
8362;BMP180;4218;48.326;14.304;2024-03-08T06:56:26;98447.00;;;2.60
8362;BMP180;4218;48.326;14.304;2024-03-08T06:58:51;98449.00;;;2.90
8362;BMP180;4218;48.326;14.304;2024-03-08T07:01:17;98449.00;;;3.10
8362;BMP180;4218;48.326;14.304;2024-03-08T07:03:43;98450.00;;;3.00
8362;BMP180;4218;48.326;14.304;2024-03-08T07:06:10;98444.00;;;3.10
8362;BMP180;4218;48.326;14.304;2024-03-08T07:08:36;98446.00;;;3.40
8362;BMP180;4218;48.326;14.304;2024-03-08T07:11:01;98451.00;;;4.10
8362;BMP180;4218;48.326;14.304;2024-03-08T07:13:27;98452.00;;;5.00
8362;BMP180;4218;48.326;14.304;2024-03-08T07:15:53;98454.00;;;6.50
8362;BMP180;4218;48.326;14.304;2024-03-08T07:18:18;98448.00;;;8.50
8362;BMP180;4218;48.326;14.304;2024-03-08T07:20:44;98443.00;;;10.10
8362;BMP180;4218;48.326;14.304;2024-03-08T07:23:09;98445.00;;;9.30
8362;BMP180;4218;48.326;14.304;2024-03-08T07:25:35;98447.00;;;9.30
8362;BMP180;4218;48.326;14.304;2024-03-08T07:28:01;98435.00;;;9.40
8362;BMP180;4218;48.326;14.304;2024-03-08T07:30:26;98437.00;;;9.70
8362;BMP180;4218;48.326;14.304;2024-03-08T07:33:15;98433.00;;;9.50
8362;BMP180;4218;48.326;14.304;2024-03-08T07:35:41;98434.00;;;9.20
8362;BMP180;4218;48.326;14.304;2024-03-08T07:38:08;98431.00;;;8.50
8362;BMP180;4218;48.326;14.304;2024-03-08T07:40:39;98425.00;;;7.70
8362;BMP180;4218;48.326;14.304;2024-03-08T07:43:08;98420.00;;;6.90
8362;BMP180;4218;48.326;14.304;2024-03-08T07:45:33;98430.00;;;6.60
8362;BMP180;4218;48.326;14.304;2024-03-08T07:47:58;98427.00;;;6.30
8362;BMP180;4218;48.326;14.304;2024-03-08T07:50:24;98419.00;;;7.00
8362;BMP180;4218;48.326;14.304;2024-03-08T07:52:49;98402.00;;;6.90
8362;BMP180;4218;48.326;14.304;2024-03-08T07:55:15;98414.00;;;6.70
8362;BMP180;4218;48.326;14.304;2024-03-08T07:57:40;98412.00;;;6.40
8362;BMP180;4218;48.326;14.304;2024-03-08T08:00:08;98410.00;;;6.20
8362;BMP180;4218;48.326;14.304;2024-03-08T08:02:35;98393.00;;;6.00
8362;BMP180;4218;48.326;14.304;2024-03-08T08:05:01;98404.00;;;5.90
8362;BMP180;4218;48.326;14.304;2024-03-08T08:07:26;98400.00;;;6.10
8362;BMP180;4218;48.326;14.304;2024-03-08T08:09:53;98389.00;;;6.00
8362;BMP180;4218;48.326;14.304;2024-03-08T08:12:18;98392.00;;;6.10
8362;BMP180;4218;48.326;14.304;2024-03-08T08:14:44;98386.00;;;6.10
8362;BMP180;4218;48.326;14.304;2024-03-08T08:17:10;98394.00;;;6.20
8362;BMP180;4218;48.326;14.304;2024-03-08T08:19:42;98383.00;;;6.50
8362;BMP180;4218;48.326;14.304;2024-03-08T08:22:12;98381.00;;;6.70
8362;BMP180;4218;48.326;14.304;2024-03-08T08:24:37;98378.00;;;6.20
8362;BMP180;4218;48.326;14.304;2024-03-08T08:27:03;98383.00;;;6.00
8362;BMP180;4218;48.326;14.304;2024-03-08T08:29:29;98375.00;;;6.00
8362;BMP180;4218;48.326;14.304;2024-03-08T08:31:57;98391.00;;;6.10
8362;BMP180;4218;48.326;14.304;2024-03-08T08:34:24;98386.00;;;6.10
8362;BMP180;4218;48.326;14.304;2024-03-08T08:36:52;98379.00;;;6.20
8362;BMP180;4218;48.326;14.304;2024-03-08T08:39:19;98377.00;;;6.20
8362;BMP180;4218;48.326;14.304;2024-03-08T08:41:48;98368.00;;;6.20
8362;BMP180;4218;48.326;14.304;2024-03-08T08:44:16;98369.00;;;6.10
8362;BMP180;4218;48.326;14.304;2024-03-08T08:46:42;98365.00;;;6.20
8362;BMP180;4218;48.326;14.304;2024-03-08T08:49:09;98363.00;;;6.20
8362;BMP180;4218;48.326;14.304;2024-03-08T08:51:54;98366.00;;;6.20
8362;BMP180;4218;48.326;14.304;2024-03-08T08:54:21;98363.00;;;6.30
8362;BMP180;4218;48.326;14.304;2024-03-08T08:56:50;98351.00;;;6.40
8362;BMP180;4218;48.326;14.304;2024-03-08T08:59:16;98335.00;;;6.30
8362;BMP180;4218;48.326;14.304;2024-03-08T09:01:56;98354.00;;;6.40
8362;BMP180;4218;48.326;14.304;2024-03-08T09:05:10;98348.00;;;6.50
8362;BMP180;4218;48.326;14.304;2024-03-08T09:07:37;98358.00;;;6.70
8362;BMP180;4218;48.326;14.304;2024-03-08T09:10:07;98346.00;;;6.60
8362;BMP180;4218;48.326;14.304;2024-03-08T09:12:35;98340.00;;;6.70
8362;BMP180;4218;48.326;14.304;2024-03-08T09:15:05;98337.00;;;6.90
8362;BMP180;4218;48.326;14.304;2024-03-08T09:17:37;98324.00;;;6.90
8362;BMP180;4218;48.326;14.304;2024-03-08T09:20:08;98319.00;;;6.90
8362;BMP180;4218;48.326;14.304;2024-03-08T09:22:46;98326.00;;;7.00
8362;BMP180;4218;48.326;14.304;2024-03-08T09:25:11;98317.00;;;7.10
8362;BMP180;4218;48.326;14.304;2024-03-08T09:27:42;98317.00;;;7.20
8362;BMP180;4218;48.326;14.304;2024-03-08T09:30:12;98314.00;;;7.20
8362;BMP180;4218;48.326;14.304;2024-03-08T09:32:40;98302.00;;;7.20
8362;BMP180;4218;48.326;14.304;2024-03-08T09:35:11;98304.00;;;7.30
8362;BMP180;4218;48.326;14.304;2024-03-08T09:37:40;98324.00;;;7.30
8362;BMP180;4218;48.326;14.304;2024-03-08T09:40:07;98306.00;;;7.30
8362;BMP180;4218;48.326;14.304;2024-03-08T09:42:42;98309.00;;;7.40
8362;BMP180;4218;48.326;14.304;2024-03-08T09:45:16;98305.00;;;7.50
8362;BMP180;4218;48.326;14.304;2024-03-08T09:47:48;98310.00;;;7.60
8362;BMP180;4218;48.326;14.304;2024-03-08T09:50:27;98302.00;;;7.70
8362;BMP180;4218;48.326;14.304;2024-03-08T09:53:05;98311.00;;;8.70
8362;BMP180;4218;48.326;14.304;2024-03-08T09:55:37;98298.00;;;10.20
8362;BMP180;4218;48.326;14.304;2024-03-08T10:32:33;98271.00;;;8.50
8362;BMP180;4218;48.326;14.304;2024-03-08T10:35:00;98257.00;;;8.50
8362;BMP180;4218;48.326;14.304;2024-03-08T10:37:34;98254.00;;;8.60
8362;BMP180;4218;48.326;14.304;2024-03-08T10:40:20;98255.00;;;8.80
8362;BMP180;4218;48.326;14.304;2024-03-08T10:42:58;98263.00;;;8.90
8362;BMP180;4218;48.326;14.304;2024-03-08T10:45:40;98260.00;;;8.90
8362;BMP180;4218;48.326;14.304;2024-03-08T10:48:32;98257.00;;;9.00
8362;BMP180;4218;48.326;14.304;2024-03-08T10:51:39;98247.00;;;9.10
8362;BMP180;4218;48.326;14.304;2024-03-08T10:54:07;98254.00;;;9.10
8362;BMP180;4218;48.326;14.304;2024-03-08T10:56:34;98260.00;;;9.00
8362;BMP180;4218;48.326;14.304;2024-03-08T10:59:00;98258.00;;;9.30
8362;BMP180;4218;48.326;14.304;2024-03-08T11:01:25;98253.00;;;9.30
8362;BMP180;4218;48.326;14.304;2024-03-08T11:03:51;98256.00;;;9.30
8362;BMP180;4218;48.326;14.304;2024-03-08T11:06:42;98246.00;;;9.30
8362;BMP180;4218;48.326;14.304;2024-03-08T11:09:35;98250.00;;;9.40
8362;BMP180;4218;48.326;14.304;2024-03-08T11:14:47;98233.00;;;9.50
8362;BMP180;4218;48.326;14.304;2024-03-08T11:17:15;98220.00;;;9.30
8362;BMP180;4218;48.326;14.304;2024-03-08T11:19:47;98228.00;;;9.20
8362;BMP180;4218;48.326;14.304;2024-03-08T11:22:27;98223.00;;;9.10
8362;BMP180;4218;48.326;14.304;2024-03-08T11:25:02;98214.00;;;9.10
8362;BMP180;4218;48.326;14.304;2024-03-08T11:27:31;98214.00;;;9.30
8362;BMP180;4218;48.326;14.304;2024-03-08T11:30:01;98206.00;;;9.40
8362;BMP180;4218;48.326;14.304;2024-03-08T11:32:35;98210.00;;;9.40
8362;BMP180;4218;48.326;14.304;2024-03-08T11:35:00;98202.00;;;9.30
8362;BMP180;4218;48.326;14.304;2024-03-08T11:37:33;98201.00;;;9.40
8362;BMP180;4218;48.326;14.304;2024-03-08T11:40:00;98204.00;;;9.50
8362;BMP180;4218;48.326;14.304;2024-03-08T11:42:26;98200.00;;;9.50
8362;BMP180;4218;48.326;14.304;2024-03-08T11:44:53;98189.00;;;9.60
8362;BMP180;4218;48.326;14.304;2024-03-08T11:47:19;98202.00;;;9.60
8362;BMP180;4218;48.326;14.304;2024-03-08T11:49:45;98185.00;;;9.50
8362;BMP180;4218;48.326;14.304;2024-03-08T11:52:13;98183.00;;;9.50
8362;BMP180;4218;48.326;14.304;2024-03-08T11:54:40;98183.00;;;9.60
8362;BMP180;4218;48.326;14.304;2024-03-08T11:57:05;98183.00;;;9.70
8362;BMP180;4218;48.326;14.304;2024-03-08T11:59:31;98173.00;;;9.60
8362;BMP180;4218;48.326;14.304;2024-03-08T12:02:06;98180.00;;;9.50
8362;BMP180;4218;48.326;14.304;2024-03-08T12:04:32;98172.00;;;9.60
8362;BMP180;4218;48.326;14.304;2024-03-08T12:07:02;98175.00;;;9.80
8362;BMP180;4218;48.326;14.304;2024-03-08T12:09:28;98169.00;;;9.60
8362;BMP180;4218;48.326;14.304;2024-03-08T12:11:53;98163.00;;;9.50
8362;BMP180;4218;48.326;14.304;2024-03-08T12:14:19;98171.00;;;9.60
8362;BMP180;4218;48.326;14.304;2024-03-08T12:16:46;98169.00;;;9.70
8362;BMP180;4218;48.326;14.304;2024-03-08T12:19:11;98155.00;;;9.90
8362;BMP180;4218;48.326;14.304;2024-03-08T12:21:37;98154.00;;;9.80
8362;BMP180;4218;48.326;14.304;2024-03-08T12:24:03;98156.00;;;9.70
8362;BMP180;4218;48.326;14.304;2024-03-08T12:26:29;98140.00;;;9.70
8362;BMP180;4218;48.326;14.304;2024-03-08T12:29:14;98156.00;;;10.00
8362;BMP180;4218;48.326;14.304;2024-03-08T12:31:42;98130.00;;;9.90
8362;BMP180;4218;48.326;14.304;2024-03-08T12:34:08;98150.00;;;9.90
8362;BMP180;4218;48.326;14.304;2024-03-08T12:36:35;98145.00;;;9.90
8362;BMP180;4218;48.326;14.304;2024-03-08T12:39:01;98131.00;;;9.90
8362;BMP180;4218;48.326;14.304;2024-03-08T12:41:29;98145.00;;;10.00
8362;BMP180;4218;48.326;14.304;2024-03-08T12:43:54;98148.00;;;10.00
8362;BMP180;4218;48.326;14.304;2024-03-08T12:46:21;98133.00;;;10.20
8362;BMP180;4218;48.326;14.304;2024-03-08T12:48:47;98129.00;;;10.10
8362;BMP180;4218;48.326;14.304;2024-03-08T12:51:16;98129.00;;;10.20
8362;BMP180;4218;48.326;14.304;2024-03-08T12:53:43;98137.00;;;10.20
8362;BMP180;4218;48.326;14.304;2024-03-08T12:56:12;98121.00;;;10.30
8362;BMP180;4218;48.326;14.304;2024-03-08T12:58:38;98130.00;;;10.50
8362;BMP180;4218;48.326;14.304;2024-03-08T13:01:04;98119.00;;;10.40
8362;BMP180;4218;48.326;14.304;2024-03-08T13:03:35;98122.00;;;10.30
8362;BMP180;4218;48.326;14.304;2024-03-08T13:06:03;98105.00;;;10.20
8362;BMP180;4218;48.326;14.304;2024-03-08T13:08:34;98098.00;;;10.10
8362;BMP180;4218;48.326;14.304;2024-03-08T13:11:01;98105.00;;;10.00
8362;BMP180;4218;48.326;14.304;2024-03-08T13:13:27;98106.00;;;10.10
8362;BMP180;4218;48.326;14.304;2024-03-08T13:15:52;98089.00;;;10.10
8362;BMP180;4218;48.326;14.304;2024-03-08T13:18:18;98105.00;;;10.10
8362;BMP180;4218;48.326;14.304;2024-03-08T13:20:43;98100.00;;;10.20
8362;BMP180;4218;48.326;14.304;2024-03-08T13:23:14;98099.00;;;10.10
8362;BMP180;4218;48.326;14.304;2024-03-08T13:25:40;98098.00;;;9.90
8362;BMP180;4218;48.326;14.304;2024-03-08T13:28:06;98090.00;;;10.00
8362;BMP180;4218;48.326;14.304;2024-03-08T13:30:31;98088.00;;;9.90
8362;BMP180;4218;48.326;14.304;2024-03-08T13:32:57;98089.00;;;9.90
8362;BMP180;4218;48.326;14.304;2024-03-08T13:35:22;98086.00;;;9.90
8362;BMP180;4218;48.326;14.304;2024-03-08T13:37:52;98090.00;;;9.90
8362;BMP180;4218;48.326;14.304;2024-03-08T13:40:17;98093.00;;;10.00
8362;BMP180;4218;48.326;14.304;2024-03-08T13:42:46;98090.00;;;10.00
8362;BMP180;4218;48.326;14.304;2024-03-08T13:45:12;98075.00;;;9.80
8362;BMP180;4218;48.326;14.304;2024-03-08T13:47:38;98079.00;;;9.90
8362;BMP180;4218;48.326;14.304;2024-03-08T13:50:09;98077.00;;;9.90
8362;BMP180;4218;48.326;14.304;2024-03-08T13:52:40;98067.00;;;10.00
8362;BMP180;4218;48.326;14.304;2024-03-08T13:55:06;98082.00;;;10.10
8362;BMP180;4218;48.326;14.304;2024-03-08T13:57:32;98062.00;;;10.00
8362;BMP180;4218;48.326;14.304;2024-03-08T13:59:58;98059.00;;;10.10
8362;BMP180;4218;48.326;14.304;2024-03-08T14:02:23;98068.00;;;10.10
8362;BMP180;4218;48.326;14.304;2024-03-08T14:04:54;98062.00;;;10.00
8362;BMP180;4218;48.326;14.304;2024-03-08T14:07:20;98058.00;;;9.90
8362;BMP180;4218;48.326;14.304;2024-03-08T14:09:46;98053.00;;;9.80
8362;BMP180;4218;48.326;14.304;2024-03-08T14:12:14;98053.00;;;9.70
8362;BMP180;4218;48.326;14.304;2024-03-08T14:14:41;98049.00;;;9.70
8362;BMP180;4218;48.326;14.304;2024-03-08T14:17:07;98050.00;;;9.70
8362;BMP180;4218;48.326;14.304;2024-03-08T14:19:35;98059.00;;;9.70
8362;BMP180;4218;48.326;14.304;2024-03-08T14:22:00;98050.00;;;9.80
8362;BMP180;4218;48.326;14.304;2024-03-08T14:24:25;98049.00;;;9.80
8362;BMP180;4218;48.326;14.304;2024-03-08T14:26:51;98034.00;;;9.90
8362;BMP180;4218;48.326;14.304;2024-03-08T14:29:17;98036.00;;;9.80
8362;BMP180;4218;48.326;14.304;2024-03-08T14:31:44;98040.00;;;9.90
8362;BMP180;4218;48.326;14.304;2024-03-08T14:34:10;98043.00;;;9.80
8362;BMP180;4218;48.326;14.304;2024-03-08T14:36:35;98031.00;;;9.80
8362;BMP180;4218;48.326;14.304;2024-03-08T14:39:01;98032.00;;;9.90
8362;BMP180;4218;48.326;14.304;2024-03-08T14:41:26;98045.00;;;9.90
8362;BMP180;4218;48.326;14.304;2024-03-08T14:43:52;98027.00;;;9.90
8362;BMP180;4218;48.326;14.304;2024-03-08T14:46:22;98030.00;;;9.80
8362;BMP180;4218;48.326;14.304;2024-03-08T14:48:51;98029.00;;;9.80
8362;BMP180;4218;48.326;14.304;2024-03-08T14:51:17;98029.00;;;9.80
8362;BMP180;4218;48.326;14.304;2024-03-08T14:53:46;98027.00;;;9.70
8362;BMP180;4218;48.326;14.304;2024-03-08T14:56:12;98030.00;;;9.70
8362;BMP180;4218;48.326;14.304;2024-03-08T14:58:50;98021.00;;;9.70
8362;BMP180;4218;48.326;14.304;2024-03-08T15:01:17;98025.00;;;9.60
8362;BMP180;4218;48.326;14.304;2024-03-08T15:03:47;98015.00;;;9.60
8362;BMP180;4218;48.326;14.304;2024-03-08T15:06:13;98001.00;;;9.60
8362;BMP180;4218;48.326;14.304;2024-03-08T15:08:40;98010.00;;;9.50
8362;BMP180;4218;48.326;14.304;2024-03-08T15:11:06;98010.00;;;9.40
8362;BMP180;4218;48.326;14.304;2024-03-08T15:13:32;98004.00;;;9.40
8362;BMP180;4218;48.326;14.304;2024-03-08T15:16:06;98010.00;;;9.40
8362;BMP180;4218;48.326;14.304;2024-03-08T15:18:33;98002.00;;;9.40
8362;BMP180;4218;48.326;14.304;2024-03-08T15:21:06;97998.00;;;9.30